createdAt,value
2022-10-23T00:01:51.152Z,41.12
2022-10-23T00:04:22.521Z,41.44
2022-10-23T00:06:51.115Z,41.02
2022-10-23T00:09:24.812Z,41.24
2022-10-23T00:11:56.939Z,40.80
2022-10-23T00:14:26.184Z,40.76
2022-10-23T00:16:54.361Z,41.37
2022-10-23T00:19:22.812Z,41.36
2022-10-23T00:21:51.358Z,41.46
2022-10-23T00:24:22.982Z,40.76
2022-10-23T00:26:52.454Z,40.95
2022-10-23T00:29:22.124Z,40.90
2022-10-23T00:31:50.162Z,41.21
2022-10-23T00:34:18.530Z,41.66
2022-10-23T00:36:46.196Z,41.54
2022-10-23T00:39:14.493Z,41.41
2022-10-23T00:41:43.558Z,41.32
2022-10-23T00:44:23.915Z,41.31
2022-10-23T00:46:54.150Z,41.32
2022-10-23T00:49:23.642Z,41.33
2022-10-23T00:51:54.497Z,41.56
2022-10-23T00:54:26.315Z,41.27
2022-10-23T00:57:02.310Z,41.33
2022-10-23T00:59:31.406Z,41.29
2022-10-23T01:02:00.619Z,41.30
2022-10-23T01:04:30.358Z,41.96
2022-10-23T01:07:27.049Z,41.91
2022-10-23T01:10:21.378Z,41.93
2022-10-23T01:13:03.335Z,41.76
2022-10-23T01:15:38.934Z,42.13
2022-10-23T01:18:15.657Z,41.88
2022-10-23T01:21:09.330Z,42.08
2022-10-23T01:24:02.140Z,42.19
2022-10-23T01:26:44.750Z,42.02
2022-10-23T01:29:34.816Z,42.41
2022-10-23T01:32:07.294Z,42.49
2022-10-23T01:35:04.042Z,42.61
2022-10-23T01:37:46.433Z,42.18
2022-10-23T01:40:31.761Z,42.78
2022-10-23T01:43:06.915Z,42.91
2022-10-23T01:45:47.636Z,42.84
2022-10-23T01:48:23.100Z,42.29
2022-10-23T01:50:52.857Z,42.56
2022-10-23T01:53:22.849Z,43.03
2022-10-23T01:55:52.573Z,42.80
2022-10-23T01:58:27.029Z,42.59
2022-10-23T02:00:58.130Z,42.51
2022-10-23T02:03:29.352Z,42.93
2022-10-23T02:05:56.632Z,42.88
2022-10-23T02:08:25.795Z,43.03
2022-10-23T02:11:09.639Z,42.88
2022-10-23T02:13:43.029Z,43.31
2022-10-23T02:16:38.841Z,43.16
2022-10-23T02:19:26.197Z,43.36
2022-10-23T02:22:18.544Z,43.79
2022-10-23T02:24:56.366Z,43.04
2022-10-23T02:27:34.309Z,43.53
2022-10-23T02:30:10.440Z,43.29
2022-10-23T02:32:43.036Z,43.17
2022-10-23T02:35:12.655Z,43.07
2022-10-23T02:37:40.458Z,43.38
2022-10-23T02:40:10.210Z,43.29
2022-10-23T02:43:01.930Z,43.91
2022-10-23T02:45:44.026Z,43.91
2022-10-23T02:48:23.050Z,43.40
2022-10-23T02:51:09.883Z,43.31
2022-10-23T02:53:49.756Z,43.60
2022-10-23T02:56:38.710Z,43.95
2022-10-23T03:02:39.338Z,44.23
2022-10-23T03:05:13.752Z,43.85
2022-10-23T03:07:42.381Z,44.37
2022-10-23T03:10:11.798Z,44.36
2022-10-23T03:12:40.350Z,43.98
2022-10-23T03:15:09.787Z,44.08
2022-10-23T03:17:41.089Z,44.19
2022-10-23T03:20:11.155Z,44.55
2022-10-23T03:22:41.774Z,44.55
2022-10-23T03:25:10.672Z,44.45
2022-10-23T03:27:42.218Z,44.80
2022-10-23T03:30:13.053Z,44.34
2022-10-23T03:32:42.271Z,44.84
2022-10-23T03:35:11.104Z,44.63
2022-10-23T03:37:39.695Z,44.80
2022-10-23T03:40:09.018Z,44.84
2022-10-23T03:42:37.772Z,44.61
2022-10-23T03:45:06.562Z,44.89
2022-10-23T03:47:41.882Z,44.92
2022-10-23T03:50:14.284Z,44.83
2022-10-23T03:52:46.183Z,44.93
2022-10-23T03:55:15.397Z,44.98
2022-10-23T03:57:43.655Z,45.43
2022-10-23T04:00:13.159Z,45.16
2022-10-23T04:02:49.468Z,44.84
2022-10-23T04:05:17.677Z,45.01
2022-10-23T04:07:54.835Z,45.26
2022-10-23T04:10:23.381Z,45.02
2022-10-23T04:12:51.954Z,44.97
2022-10-23T04:15:21.198Z,44.98
2022-10-23T04:17:49.274Z,45.01
2022-10-23T04:20:18.370Z,45.24
2022-10-23T04:22:46.839Z,45.30
2022-10-23T04:25:18.095Z,45.03
2022-10-23T04:27:46.456Z,45.23
2022-10-23T04:30:17.569Z,45.32
2022-10-23T04:32:46.918Z,45.54
2022-10-23T04:35:20.619Z,45.41
2022-10-23T04:37:48.729Z,45.29
2022-10-23T04:40:16.861Z,45.27
2022-10-23T04:42:48.374Z,45.23
2022-10-23T04:45:16.851Z,45.34
2022-10-23T04:47:44.455Z,45.53
2022-10-23T04:50:11.970Z,45.33
2022-10-23T04:52:59.103Z,45.37
2022-10-23T04:55:38.771Z,45.60
2022-10-23T04:58:13.959Z,45.66
2022-10-23T05:00:42.404Z,45.64
2022-10-23T05:03:10.416Z,45.51
2022-10-23T05:05:43.040Z,45.40
2022-10-23T05:08:29.230Z,45.48
2022-10-23T05:11:15.837Z,45.36
2022-10-23T05:13:46.986Z,45.51
2022-10-23T05:16:37.013Z,45.44
2022-10-23T05:19:07.888Z,45.79
2022-10-23T05:21:39.255Z,45.57
2022-10-23T05:24:08.310Z,45.86
2022-10-23T05:26:36.203Z,46.04
2022-10-23T05:29:08.570Z,45.62
2022-10-23T05:31:42.802Z,45.63
2022-10-23T05:34:16.952Z,45.36
2022-10-23T05:36:47.945Z,45.64
2022-10-23T05:39:21.296Z,45.85
2022-10-23T05:41:55.618Z,45.75
2022-10-23T05:44:29.246Z,45.55
2022-10-23T05:47:18.331Z,46.06
2022-10-23T05:50:21.719Z,46.05
2022-10-23T05:53:24.115Z,45.79
2022-10-23T05:56:10.208Z,45.65
2022-10-23T05:58:49.278Z,45.83
2022-10-23T06:01:27.155Z,45.77
2022-10-23T06:04:01.369Z,46.00
2022-10-23T06:07:05.029Z,45.76
2022-10-23T06:09:33.543Z,45.81
2022-10-23T06:12:03.218Z,45.82
2022-10-23T06:14:34.518Z,46.08
2022-10-23T06:17:03.181Z,46.08
2022-10-23T06:19:31.591Z,45.63
2022-10-23T06:22:00.084Z,45.82
2022-10-23T06:24:46.071Z,46.01
2022-10-23T06:27:19.529Z,46.12
2022-10-23T06:29:48.783Z,46.24
2022-10-23T06:32:20.056Z,46.10
2022-10-23T06:35:01.923Z,46.25
2022-10-23T06:37:35.521Z,46.42
2022-10-23T06:40:10.776Z,46.80
2022-10-23T06:42:58.431Z,46.77
2022-10-23T06:45:45.752Z,46.53
2022-10-23T06:48:17.912Z,46.53
2022-10-23T06:50:56.488Z,46.34
2022-10-23T06:53:38.998Z,46.69
2022-10-23T06:56:16.741Z,47.11
2022-10-23T06:58:44.344Z,46.57
2022-10-23T07:01:16.783Z,46.78
2022-10-23T07:03:45.593Z,46.75
2022-10-23T07:06:14.488Z,46.93
2022-10-23T07:08:42.736Z,46.65
2022-10-23T07:11:42.458Z,46.69
2022-10-23T07:14:10.763Z,46.62
2022-10-23T07:16:42.204Z,46.57
2022-10-23T07:19:10.965Z,46.57
2022-10-23T07:21:38.970Z,46.72
2022-10-23T07:24:27.102Z,46.75
2022-10-23T07:26:56.659Z,46.66
2022-10-23T07:29:25.530Z,46.31
2022-10-23T07:31:54.012Z,46.51
2022-10-23T07:34:40.643Z,45.87
2022-10-23T07:37:22.666Z,45.54
2022-10-23T07:39:52.112Z,45.56
2022-10-23T07:42:22.895Z,45.33
2022-10-23T07:44:51.733Z,45.24
2022-10-23T07:47:19.594Z,44.81
2022-10-23T07:49:50.794Z,44.53
2022-10-23T07:52:23.784Z,44.75
2022-10-23T07:55:11.515Z,44.60
2022-10-23T07:57:48.756Z,44.51
2022-10-23T08:00:38.849Z,44.40
2022-10-23T08:03:14.189Z,44.56
2022-10-23T08:05:42.508Z,44.55
2022-10-23T08:08:10.791Z,44.23
2022-10-23T08:10:42.245Z,45.09
2022-10-23T08:13:14.869Z,45.15
2022-10-23T08:16:05.361Z,44.49
2022-10-23T08:18:52.778Z,44.02
2022-10-23T08:21:21.488Z,43.71
2022-10-23T08:23:53.849Z,43.39
2022-10-23T08:26:22.455Z,42.80
2022-10-23T08:28:50.503Z,42.61
2022-10-23T08:31:21.552Z,41.96
2022-10-23T08:34:11.471Z,41.82
2022-10-23T08:36:40.307Z,41.70
2022-10-23T08:39:29.365Z,41.40
2022-10-23T08:42:07.572Z,41.50
2022-10-23T08:44:50.967Z,40.85
2022-10-23T08:48:27.353Z,40.69
2022-10-23T08:51:40.354Z,40.80
2022-10-23T08:54:43.599Z,40.62
2022-10-23T08:57:15.785Z,40.49
2022-10-23T09:00:16.207Z,40.46
2022-10-23T09:02:47.467Z,40.39
2022-10-23T09:05:18.532Z,40.37
2022-10-23T09:08:00.596Z,40.00
2022-10-23T09:10:38.083Z,40.68
2022-10-23T09:13:18.085Z,40.35
2022-10-23T09:16:00.735Z,40.41
2022-10-23T09:18:28.568Z,40.72
2022-10-23T09:20:56.640Z,40.67
2022-10-23T09:23:25.578Z,41.41
2022-10-23T09:25:57.551Z,41.21
2022-10-23T09:28:33.113Z,41.36
2022-10-23T09:31:12.672Z,41.58
2022-10-23T09:33:41.206Z,41.77
2022-10-23T09:36:14.390Z,43.84
2022-10-23T09:38:51.629Z,44.05
2022-10-23T09:41:35.380Z,44.54
2022-10-23T09:44:09.221Z,45.75
2022-10-23T09:46:42.310Z,46.38
2022-10-23T09:49:26.333Z,46.86
2022-10-23T09:52:09.396Z,46.99
2022-10-23T09:54:51.331Z,45.88
2022-10-23T09:57:43.051Z,45.52
2022-10-23T10:00:15.169Z,45.70
2022-10-23T10:03:06.490Z,45.42
2022-10-23T10:05:41.072Z,45.61
2022-10-23T10:08:48.250Z,45.80
2022-10-23T10:11:49.250Z,45.96
2022-10-23T10:14:43.486Z,46.24
2022-10-23T10:17:48.465Z,46.16
2022-10-23T10:20:16.428Z,46.20
2022-10-23T10:22:59.657Z,46.82
2022-10-23T10:25:33.442Z,46.62
2022-10-23T10:28:01.570Z,46.40
2022-10-23T10:30:46.181Z,47.36
2022-10-23T10:33:21.845Z,48.11
2022-10-23T10:35:52.376Z,47.40
2022-10-23T10:39:02.946Z,48.19
2022-10-23T10:41:38.388Z,47.86
2022-10-23T10:44:31.335Z,48.39
2022-10-23T10:47:21.840Z,48.33
2022-10-23T10:50:27.444Z,49.67
2022-10-23T10:53:42.928Z,48.93
2022-10-23T10:56:22.878Z,49.78
2022-10-23T10:59:02.411Z,48.73
2022-10-23T11:01:51.221Z,50.30
2022-10-23T11:04:42.622Z,50.95
2022-10-23T11:07:15.979Z,50.79
2022-10-23T11:09:44.400Z,50.86
2022-10-23T11:12:29.648Z,51.20
2022-10-23T11:15:01.124Z,50.83
2022-10-23T11:18:18.243Z,51.53
2022-10-23T11:20:53.377Z,51.71
2022-10-23T11:23:37.328Z,52.34
2022-10-23T11:26:26.898Z,52.32
2022-10-23T11:29:31.418Z,52.74
2022-10-23T11:32:17.845Z,54.00
2022-10-23T11:35:03.742Z,53.88
2022-10-23T11:37:32.370Z,54.02
2022-10-23T11:40:09.452Z,53.73
2022-10-23T11:42:41.060Z,52.19
2022-10-23T11:45:44.351Z,52.30
2022-10-23T11:48:14.952Z,51.75
2022-10-23T11:50:45.814Z,51.73
2022-10-23T11:53:33.921Z,51.23
2022-10-23T11:56:04.687Z,50.94
2022-10-23T11:58:49.543Z,50.96
2022-10-23T12:01:36.559Z,50.99
2022-10-23T12:04:28.891Z,50.95
2022-10-23T12:07:01.509Z,50.56
2022-10-23T12:09:40.873Z,51.59
2022-10-23T12:12:08.483Z,51.34
2022-10-23T12:14:51.199Z,52.09
2022-10-23T12:17:25.273Z,51.99
2022-10-23T12:20:02.014Z,51.87
2022-10-23T12:22:45.275Z,52.62
2022-10-23T12:25:17.732Z,52.56
2022-10-23T12:27:49.759Z,51.42
2022-10-23T12:30:35.077Z,52.57
2022-10-23T12:33:16.199Z,52.18
2022-10-23T12:35:54.135Z,51.83
2022-10-23T12:38:40.988Z,51.21
2022-10-23T12:41:34.689Z,51.36
2022-10-23T12:44:13.056Z,50.79
2022-10-23T12:46:53.689Z,50.56
2022-10-23T12:49:32.205Z,50.13
2022-10-23T12:52:19.357Z,49.07
2022-10-23T12:54:51.279Z,49.56
2022-10-23T12:57:34.314Z,48.98
2022-10-23T13:00:15.625Z,49.18
2022-10-23T13:02:46.266Z,48.13
2022-10-23T13:05:26.728Z,47.96
2022-10-23T13:07:55.189Z,48.05
2022-10-23T13:10:45.152Z,48.76
2022-10-23T13:13:24.208Z,48.13
2022-10-23T13:15:52.421Z,47.67
2022-10-23T13:18:21.350Z,47.27
2022-10-23T13:20:52.321Z,46.94
2022-10-23T13:23:35.725Z,46.42
2022-10-23T13:26:22.243Z,46.94
2022-10-23T13:28:51.237Z,46.31
2022-10-23T13:31:30.712Z,45.40
2022-10-23T13:34:15.797Z,44.52
2022-10-23T13:36:53.826Z,44.18
2022-10-23T13:39:33.167Z,43.68
2022-10-23T13:42:13.431Z,42.68
2022-10-23T13:44:43.208Z,42.25
2022-10-23T13:47:20.371Z,42.50
2022-10-23T13:49:48.972Z,40.07
2022-10-23T13:52:22.935Z,38.83
2022-10-23T13:55:01.747Z,38.98
2022-10-23T13:57:29.783Z,39.45
2022-10-23T14:00:00.126Z,39.13
2022-10-23T14:02:37.203Z,39.56
2022-10-23T14:05:05.455Z,39.11
2022-10-23T14:07:33.853Z,40.47
2022-10-23T14:10:05.146Z,40.23
2022-10-23T14:12:45.076Z,39.78
2022-10-23T14:15:13.168Z,39.92
2022-10-23T14:18:09.662Z,39.95
2022-10-23T14:20:40.268Z,39.30
2022-10-23T14:23:12.166Z,39.51
2022-10-23T14:25:44.373Z,38.71
2022-10-23T14:28:21.255Z,38.42
2022-10-23T14:30:52.071Z,39.16
2022-10-23T14:33:26.803Z,40.50
2022-10-23T14:35:57.632Z,47.39
2022-10-23T14:38:37.553Z,48.35
2022-10-23T14:41:17.991Z,50.46
2022-10-23T14:43:56.737Z,48.92
2022-10-23T14:46:39.123Z,50.78
2022-10-23T14:49:07.596Z,50.14
2022-10-23T14:51:40.558Z,50.54
2022-10-23T14:54:11.718Z,50.27
2022-10-23T14:56:43.748Z,51.08
2022-10-23T14:59:19.752Z,51.35
2022-10-23T15:01:58.139Z,52.37
2022-10-23T15:04:28.434Z,51.84
2022-10-23T15:06:56.259Z,51.25
2022-10-23T15:09:32.670Z,51.56
2022-10-23T15:12:01.012Z,52.32
2022-10-23T15:14:33.217Z,51.66
2022-10-23T15:17:15.404Z,51.95
2022-10-23T15:19:47.245Z,52.00
2022-10-23T15:22:15.010Z,51.34
2022-10-23T15:24:50.746Z,50.99
2022-10-23T15:27:20.896Z,50.21
2022-10-23T15:30:04.033Z,51.33
2022-10-23T15:32:32.324Z,50.97
2022-10-23T15:35:00.522Z,50.89
2022-10-23T15:37:29.537Z,51.08
2022-10-23T15:40:02.491Z,51.78
2022-10-23T15:42:39.266Z,50.60
2022-10-23T15:45:07.927Z,51.09
2022-10-23T15:47:35.582Z,50.99
2022-10-23T15:50:05.330Z,50.31
2022-10-23T15:52:33.390Z,50.99
2022-10-23T15:55:01.521Z,51.24
2022-10-23T15:57:32.983Z,51.86
2022-10-23T16:00:05.933Z,52.42
2022-10-23T16:02:41.300Z,53.04
2022-10-23T16:05:12.698Z,54.78
2022-10-23T16:07:41.412Z,55.49
2022-10-23T16:10:11.683Z,57.34
2022-10-23T16:12:44.146Z,56.75
2022-10-23T16:15:12.786Z,58.28
2022-10-23T16:17:42.385Z,58.69
2022-10-23T16:20:13.530Z,59.80
2022-10-23T16:22:44.169Z,59.41
2022-10-23T16:25:13.780Z,59.58
2022-10-23T16:27:45.557Z,61.64
2022-10-23T16:30:17.853Z,60.35
2022-10-23T16:32:45.850Z,62.45
2022-10-23T16:35:14.816Z,62.10
2022-10-23T16:37:55.977Z,61.77
2022-10-23T16:40:33.823Z,62.45
2022-10-23T16:43:20.923Z,63.04
2022-10-23T16:46:15.958Z,62.59
2022-10-23T16:48:45.103Z,62.41
2022-10-23T16:51:18.968Z,62.32
2022-10-23T16:53:48.587Z,61.32
2022-10-23T16:56:19.045Z,61.84
2022-10-23T16:58:49.384Z,60.80
2022-10-23T17:01:23.123Z,60.64
2022-10-23T17:03:53.758Z,61.47
2022-10-23T17:06:29.363Z,60.37
2022-10-23T17:08:58.966Z,59.26
2022-10-23T17:11:30.008Z,61.03
2022-10-23T17:14:00.995Z,59.68
2022-10-23T17:16:35.889Z,60.65
2022-10-23T17:19:43.800Z,59.98
2022-10-23T17:22:16.138Z,59.96
2022-10-23T17:24:48.698Z,60.30
2022-10-23T17:27:21.499Z,60.05
2022-10-23T17:29:55.697Z,59.76
2022-10-23T17:32:24.685Z,59.75
2022-10-23T17:34:55.112Z,60.41
2022-10-23T17:37:23.509Z,60.45
2022-10-23T17:39:51.708Z,60.23
2022-10-23T17:42:22.646Z,60.00
2022-10-23T17:44:50.458Z,59.36
2022-10-23T17:47:19.671Z,59.45
2022-10-23T17:49:49.566Z,59.86
2022-10-23T17:52:17.607Z,60.45
2022-10-23T17:54:46.481Z,59.83
2022-10-23T17:57:17.827Z,59.26
2022-10-23T17:59:46.966Z,59.48
2022-10-23T18:02:15.965Z,58.97
2022-10-23T18:04:49.670Z,58.96
2022-10-23T18:07:18.582Z,58.96
2022-10-23T18:09:49.909Z,59.28
2022-10-23T18:12:18.078Z,59.65
2022-10-23T18:14:48.671Z,59.63
2022-10-23T18:17:16.892Z,59.21
2022-10-23T18:19:47.923Z,59.24
2022-10-23T18:24:44.682Z,60.08
2022-10-23T18:27:18.770Z,59.38
2022-10-23T18:29:50.017Z,60.12
2022-10-23T18:32:20.584Z,59.38
2022-10-23T18:34:51.999Z,59.74
2022-10-23T18:37:28.925Z,59.04
2022-10-23T18:40:00.050Z,59.23
2022-10-23T18:42:28.107Z,59.47
2022-10-23T18:44:56.386Z,59.14
2022-10-23T18:47:25.027Z,59.25
2022-10-23T18:49:53.515Z,60.03
2022-10-23T18:52:23.752Z,60.84
2022-10-23T18:54:51.526Z,59.64
2022-10-23T18:57:19.593Z,59.56
2022-10-23T18:59:51.826Z,59.95
2022-10-23T19:02:20.129Z,59.11
2022-10-23T19:04:49.713Z,59.10
2022-10-23T19:07:21.320Z,59.31
2022-10-23T19:09:49.640Z,58.82
2022-10-23T19:12:20.031Z,58.85
2022-10-23T19:14:49.553Z,58.40
2022-10-23T19:17:22.221Z,58.25
2022-10-23T19:19:57.670Z,58.79
2022-10-23T19:22:34.913Z,59.15
2022-10-23T19:25:11.209Z,59.04
2022-10-23T19:27:48.387Z,58.71
2022-10-23T19:30:21.914Z,58.65
2022-10-23T19:32:51.001Z,58.43
2022-10-23T19:35:21.442Z,58.52
2022-10-23T19:37:56.540Z,58.72
2022-10-23T19:40:28.442Z,58.33
2022-10-23T19:42:57.077Z,59.03
2022-10-23T19:45:28.833Z,58.38
2022-10-23T19:47:56.889Z,58.35
2022-10-23T19:50:27.811Z,58.31
2022-10-23T19:53:01.038Z,57.92
2022-10-23T19:55:29.592Z,58.32
2022-10-23T19:57:57.511Z,58.56
2022-10-23T20:00:30.264Z,57.79
2022-10-23T20:03:01.464Z,58.09
2022-10-23T20:05:32.069Z,57.69
2022-10-23T20:08:03.239Z,58.24
2022-10-23T20:10:33.015Z,58.18
2022-10-23T20:13:19.415Z,58.43
2022-10-23T20:15:47.930Z,58.00
2022-10-23T20:18:19.285Z,58.01
2022-10-23T20:21:13.749Z,57.74
2022-10-23T20:23:54.033Z,57.81
2022-10-23T20:26:30.587Z,57.45
2022-10-23T20:29:01.384Z,57.29
2022-10-23T20:31:34.219Z,57.52
2022-10-23T20:34:02.534Z,57.49
2022-10-23T20:36:46.385Z,57.68
2022-10-23T20:39:18.964Z,57.35
2022-10-23T20:41:55.457Z,57.41
2022-10-23T20:44:28.567Z,57.49
2022-10-23T20:47:07.909Z,57.45
2022-10-23T20:49:36.548Z,57.34
2022-10-23T20:52:07.583Z,58.37
2022-10-23T20:54:45.236Z,58.72
2022-10-23T20:57:14.169Z,57.83
2022-10-23T20:59:46.906Z,57.89
2022-10-23T21:02:16.901Z,58.05
2022-10-23T21:04:51.745Z,58.20
2022-10-23T21:07:23.468Z,57.47
2022-10-23T21:09:54.721Z,57.69
2022-10-23T21:12:28.039Z,57.79
2022-10-23T21:15:00.438Z,57.83
2022-10-23T21:18:04.006Z,58.15
2022-10-23T21:20:52.584Z,58.35
2022-10-23T21:23:27.366Z,59.70
2022-10-23T21:25:58.329Z,59.47
2022-10-23T21:28:36.255Z,59.20
2022-10-23T21:31:15.258Z,59.13
2022-10-23T21:33:48.338Z,59.45
2022-10-23T21:36:19.307Z,61.16
2022-10-23T21:38:52.254Z,60.01
2022-10-23T21:41:25.471Z,59.54
2022-10-23T21:43:55.807Z,58.95
2022-10-23T21:46:25.149Z,59.30
2022-10-23T21:51:41.465Z,58.60
2022-10-23T21:54:15.374Z,59.68
2022-10-23T21:56:49.135Z,58.92
2022-10-23T21:59:27.793Z,59.12
2022-10-23T22:01:58.510Z,58.88
2022-10-23T22:04:26.533Z,58.78
2022-10-23T22:06:54.112Z,58.46
2022-10-23T22:09:22.596Z,58.34
2022-10-23T22:11:51.466Z,58.25
2022-10-23T22:14:19.335Z,58.46
2022-10-23T22:16:47.984Z,57.99
2022-10-23T22:19:20.299Z,59.06
2022-10-23T22:21:50.081Z,58.46
2022-10-23T22:24:18.277Z,57.87
2022-10-23T22:26:50.055Z,58.50
2022-10-23T22:29:21.084Z,58.34
2022-10-23T22:31:50.126Z,58.97
2022-10-23T22:34:48.346Z,58.64
2022-10-23T22:37:17.807Z,58.24
2022-10-23T22:39:46.970Z,58.13
2022-10-23T22:42:15.532Z,58.24
2022-10-23T22:44:47.647Z,58.25
2022-10-23T22:47:15.532Z,58.09
2022-10-23T22:49:43.647Z,58.34
2022-10-23T22:52:11.369Z,58.33
2022-10-23T22:54:39.185Z,58.42
2022-10-23T22:57:06.864Z,57.91
2022-10-23T22:59:34.457Z,57.98
2022-10-23T23:02:02.214Z,57.89
2022-10-23T23:04:37.879Z,57.85
2022-10-23T23:07:09.275Z,58.36
2022-10-23T23:09:41.438Z,58.46
2022-10-23T23:12:10.522Z,58.15
2022-10-23T23:14:41.925Z,57.92
2022-10-23T23:17:13.422Z,57.73
2022-10-23T23:19:41.296Z,57.76
2022-10-23T23:22:09.308Z,57.98
2022-10-23T23:24:37.387Z,57.77
2022-10-23T23:27:05.869Z,57.95
2022-10-23T23:29:35.694Z,58.49
2022-10-23T23:32:03.684Z,57.92
2022-10-23T23:34:32.320Z,58.27
2022-10-23T23:37:00.192Z,57.52
2022-10-23T23:39:29.756Z,58.08
2022-10-23T23:41:58.787Z,57.63
2022-10-23T23:44:28.516Z,57.84
2022-10-23T23:46:57.199Z,58.02
2022-10-23T23:49:25.069Z,57.67
2022-10-23T23:51:53.230Z,58.22
2022-10-23T23:54:24.167Z,57.81
2022-10-23T23:57:00.660Z,57.95
2022-10-23T23:59:28.406Z,58.29
